Time;durP1;ratioP1;P1;durP2;ratioP2;P2;SDS_P1;SDS_P2;PMS_P1;PMS_P2;Temp;Humidity;BMP_temperature;BMP_pressure;BME280_temperature;BME280_humidity;BME280_pressure;Samples;Min_cycle;Max_cycle;Signal;HPM_P1;HPM_P2
2022/05/22 00:01:37;;;;;;;5.07;2.22;;;;;;;7.68;39.62;98713.72;5054126;28;20110;-57
2022/05/22 00:04:03;;;;;;;4.72;2.22;;;;;;;7.79;39.70;98717.25;5053950;28;20021;-59
2022/05/22 00:06:29;;;;;;;4.07;2.17;;;;;;;7.82;39.37;98717.00;5037104;28;20075;-58
2022/05/22 00:08:55;;;;;;;4.07;2.20;;;;;;;7.69;39.54;98717.22;5033434;28;20033;-53
2022/05/22 00:11:22;;;;;;;3.67;2.05;;;;;;;7.52;40.15;98724.00;5033336;28;20129;-54
2022/05/22 00:13:47;;;;;;;4.30;1.98;;;;;;;7.72;39.77;98719.63;5033534;28;20049;-54
2022/05/22 00:18:57;;;;;;;4.20;2.28;;;;;;;7.26;40.98;98717.28;5035995;28;20020;-54
2022/05/22 00:21:22;;;;;;;7.90;2.03;;;;;;;7.57;39.51;98714.66;5052828;28;20040;-54
2022/05/22 00:23:47;;;;;;;7.47;2.50;;;;;;;7.45;40.17;98713.03;5053470;28;20067;-57
2022/05/22 00:26:13;;;;;;;5.55;2.60;;;;;;;7.46;40.30;98706.72;5037988;28;20556;-57
2022/05/22 00:28:38;;;;;;;5.03;2.35;;;;;;;7.35;40.48;98710.31;5035633;28;20478;-56
2022/05/22 00:31:04;;;;;;;3.72;2.42;;;;;;;7.39;40.67;98702.91;5052981;28;20713;-55
2022/05/22 00:33:29;;;;;;;6.50;2.40;;;;;;;7.41;40.84;98711.59;5052794;28;20400;-56
2022/05/22 00:35:55;;;;;;;2.70;1.63;;;;;;;7.28;40.52;98718.00;5052583;28;20029;-54
2022/05/22 00:38:21;;;;;;;4.93;2.55;;;;;;;7.38;40.37;98709.22;5052510;28;20048;-54
2022/05/22 00:40:47;;;;;;;4.10;2.05;;;;;;;7.05;41.20;98706.59;5052439;28;20389;-58
2022/05/22 00:43:34;;;;;;;5.82;2.75;;;;;;;6.99;40.72;98704.47;5047752;28;20025;-57
2022/05/22 00:46:01;;;;;;;5.35;2.65;;;;;;;6.89;41.61;98705.25;5032431;28;20036;-55
2022/05/22 00:48:28;;;;;;;8.70;2.00;;;;;;;6.93;41.36;98705.00;5044962;28;20028;-58
2022/05/22 00:51:01;;;;;;;5.03;2.75;;;;;;;6.95;41.66;98693.22;5051268;28;20430;-57
2022/05/22 00:53:29;;;;;;;7.00;2.42;;;;;;;6.81;42.25;98693.56;5052466;28;20202;-59
2022/05/22 00:55:56;;;;;;;4.63;2.13;;;;;;;6.74;41.67;98675.41;5052198;28;20079;-57
2022/05/22 00:58:27;;;;;;;4.97;2.58;;;;;;;6.75;42.15;98700.22;5052285;28;20071;-58
2022/05/22 01:00:53;;;;;;;6.22;2.60;;;;;;;6.83;42.21;98691.59;5050367;28;20083;-55
2022/05/22 01:03:28;;;;;;;5.75;2.10;;;;;;;6.81;42.12;98693.56;5046920;28;20478;-57
2022/05/22 01:06:07;;;;;;;6.75;2.60;;;;;;;6.69;42.26;98690.94;5034874;28;20102;-62
2022/05/22 01:08:35;;;;;;;3.55;1.80;;;;;;;6.55;42.52;98680.59;5052152;28;20063;-53
2022/05/22 01:11:14;;;;;;;5.93;2.17;;;;;;;6.51;42.86;98681.81;5052131;28;20098;-56
2022/05/22 01:13:46;;;;;;;3.53;2.30;;;;;;;6.47;42.56;98681.22;5051263;28;20032;-54
2022/05/22 01:16:12;;;;;;;3.42;2.30;;;;;;;6.52;42.12;98684.34;5052192;28;20037;-51
2022/05/22 01:18:47;;;;;;;2.63;2.13;;;;;;;6.51;42.30;98681.81;5052062;28;20029;-56
2022/05/22 01:21:20;;;;;;;3.67;2.10;;;;;;;6.39;42.72;98676.53;5051759;28;20123;-52
2022/05/22 01:23:46;;;;;;;5.90;2.15;;;;;;;6.20;43.01;98647.09;5049916;28;20048;-57
2022/05/22 01:26:12;;;;;;;2.92;2.05;;;;;;;6.13;43.66;98676.84;5051656;28;20049;-57
2022/05/22 01:28:37;;;;;;;5.10;1.80;;;;;;;6.24;43.59;98677.78;5052370;28;20041;-55
2022/05/22 01:31:04;;;;;;;4.15;2.15;;;;;;;6.09;43.73;98675.41;5041671;28;20082;-55
2022/05/22 01:33:30;;;;;;;3.78;2.08;;;;;;;6.18;43.73;98677.31;5036859;28;20037;-57
2022/05/22 01:35:55;;;;;;;4.97;2.63;;;;;;;6.41;42.74;98671.09;5051326;28;20465;-57
2022/05/22 01:38:21;;;;;;;3.30;1.92;;;;;;;6.43;42.83;98670.00;5051575;28;20423;-55
2022/05/22 01:40:46;;;;;;;4.32;2.10;;;;;;;6.40;42.82;98666.75;5051573;28;20468;-53
2022/05/22 01:43:13;;;;;;;3.35;2.08;;;;;;;6.20;43.39;98663.03;5045279;28;20028;-54
2022/05/22 01:45:41;;;;;;;6.32;1.85;;;;;;;6.15;43.13;98666.94;5031947;28;20495;-54
2022/05/22 01:48:07;;;;;;;4.35;1.90;;;;;;;6.15;43.26;98668.75;5035025;28;20083;-55
2022/05/22 01:50:33;;;;;;;4.35;2.10;;;;;;;6.07;43.51;98634.81;5051599;28;20530;-57
2022/05/22 01:52:59;;;;;;;3.55;2.10;;;;;;;6.40;42.92;98661.44;5051279;28;20033;-58
2022/05/22 01:55:25;;;;;;;5.85;2.28;;;;;;;6.35;42.98;98655.63;5040599;28;20100;-54
2022/05/22 01:57:50;;;;;;;2.63;2.03;;;;;;;6.44;42.61;98665.53;5032231;28;20528;-57
2022/05/22 02:00:19;;;;;;;4.28;2.25;;;;;;;6.45;42.98;98662.72;5051407;28;20512;-56
2022/05/22 02:02:46;;;;;;;6.88;2.00;;;;;;;6.22;43.41;98647.81;5051335;28;20064;-56
2022/05/22 02:05:12;;;;;;;4.45;2.00;;;;;;;6.20;43.98;98660.38;5051532;28;20533;-59
2022/05/22 02:10:24;;;;;;;8.70;2.10;;;;;;;6.53;42.90;98654.13;5031620;28;20091;-59
2022/05/22 02:12:51;;;;;;;4.35;2.15;;;;;;;6.47;42.60;98606.78;5031794;28;20087;-53
2022/05/22 02:15:17;;;;;;;3.50;1.65;;;;;;;6.95;41.74;98648.00;5030852;28;20473;-57
2022/05/22 02:17:43;;;;;;;6.18;2.20;;;;;;;6.94;42.26;98645.47;5030440;28;20140;-54
2022/05/22 02:20:09;;;;;;;5.65;2.05;;;;;;;7.13;41.28;98648.28;5030997;28;20509;-57
2022/05/22 02:22:42;;;;;;;3.72;1.88;;;;;;;7.18;40.93;98648.72;5031472;28;20037;-57
2022/05/22 02:25:08;;;;;;;2.58;1.92;;;;;;;7.62;39.90;98647.66;5031086;28;20037;-57
2022/05/22 02:27:34;;;;;;;3.45;2.10;;;;;;;7.53;39.96;98641.31;5031499;28;20037;-57
2022/05/22 02:30:01;;;;;;;3.47;2.00;;;;;;;7.65;40.00;98646.53;5031123;28;20056;-52
2022/05/22 02:32:27;;;;;;;3.25;1.95;;;;;;;7.56;40.50;98638.38;5030774;28;20469;-51
2022/05/22 02:34:53;;;;;;;3.35;1.95;;;;;;;7.65;39.88;98655.38;5030587;28;20056;-52
2022/05/22 02:37:19;;;;;;;2.85;1.58;;;;;;;7.74;39.07;98633.25;5030451;28;20045;-53
2022/05/22 02:39:44;;;;;;;3.70;1.77;;;;;;;7.62;39.92;98647.66;5048346;28;20035;-55
2022/05/22 02:42:10;;;;;;;4.55;1.92;;;;;;;7.26;41.16;98650.72;5050558;28;20044;-51
2022/05/22 02:44:35;;;;;;;5.25;2.10;;;;;;;7.31;40.81;98656.50;5050437;28;20033;-55
2022/05/22 02:47:01;;;;;;;3.90;1.70;;;;;;;7.16;40.84;98655.13;5050668;28;20040;-57
2022/05/22 02:49:26;;;;;;;2.65;1.45;;;;;;;7.38;40.28;98653.28;5033576;28;20044;-58
2022/05/22 02:51:52;;;;;;;3.33;1.90;;;;;;;7.11;41.67;98660.00;5030303;28;20418;-57
2022/05/22 02:54:17;;;;;;;2.53;1.77;;;;;;;7.09;41.45;98652.13;5030495;28;20039;-56
2022/05/22 02:56:43;;;;;;;3.30;1.88;;;;;;;7.10;41.36;98645.84;5029101;28;20112;-53
2022/05/22 02:59:10;;;;;;;5.45;2.30;;;;;;;7.22;41.14;98657.25;5043661;28;20112;-52
2022/05/22 03:01:35;;;;;;;5.00;2.30;;;;;;;7.46;41.05;98651.66;5050361;28;20419;-55
2022/05/22 03:04:01;;;;;;;5.32;2.10;;;;;;;7.39;40.91;98649.66;5050140;28;20104;-56
2022/05/22 03:06:38;;;;;;;3.13;2.08;;;;;;;7.31;41.50;98653.81;5030776;28;20108;-52
2022/05/22 03:09:13;;;;;;;4.45;2.50;;;;;;;7.54;40.69;98656.31;5030553;28;20450;-54
2022/05/22 03:11:40;;;;;;;2.67;1.93;;;;;;;7.56;40.49;98646.38;5030108;28;20025;-58
2022/05/22 03:14:06;;;;;;;3.38;1.95;;;;;;;7.65;40.39;98654.53;5031134;28;20470;-53
2022/05/22 03:16:32;;;;;;;5.90;2.00;;;;;;;7.72;40.58;98650.38;5029345;28;20079;-53
2022/05/22 03:18:59;;;;;;;5.97;2.22;;;;;;;8.00;39.90;98650.59;5037366;28;20104;-55
2022/05/22 03:21:27;;;;;;;7.63;2.00;;;;;;;8.49;38.85;98647.97;5029966;28;20030;-53
2022/05/22 03:23:53;;;;;;;8.57;2.53;;;;;;;8.99;38.24;98660.38;5030164;28;20091;-54
2022/05/22 03:26:18;;;;;;;4.82;2.20;;;;;;;9.66;36.79;98635.44;5030226;28;20053;-58
2022/05/22 03:28:44;;;;;;;3.78;2.38;;;;;;;10.48;35.54;98648.91;5033149;28;20033;-56
2022/05/22 03:31:09;;;;;;;5.43;2.15;;;;;;;11.14;33.73;98645.13;5033972;28;20029;-53
2022/05/22 03:33:35;;;;;;;4.15;2.10;;;;;;;11.76;32.75;98650.31;5039876;28;20446;-56
2022/05/22 03:36:00;;;;;;;4.00;2.03;;;;;;;12.26;31.39;98637.13;5034136;28;20082;-53
2022/05/22 03:38:26;;;;;;;6.95;2.00;;;;;;;12.79;30.79;98644.91;5042345;28;20032;-58
2022/05/22 03:40:52;;;;;;;5.85;2.00;;;;;;;13.49;29.50;98639.97;5053664;28;20124;-57
2022/05/22 03:43:17;;;;;;;4.05;2.00;;;;;;;14.11;28.31;98638.41;5054470;28;20032;-57
2022/05/22 03:45:44;;;;;;;6.40;2.08;;;;;;;14.63;27.49;98627.97;5053560;28;20402;-56
2022/05/22 03:48:10;;;;;;;2.17;1.70;;;;;;;15.33;26.80;98631.44;5051963;28;20029;-56
2022/05/22 03:50:36;;;;;;;3.40;1.70;;;;;;;15.87;25.93;98626.78;5053647;28;20029;-58
2022/05/22 03:53:02;;;;;;;6.80;2.00;;;;;;;16.40;24.89;98635.75;5053865;28;20033;-58
2022/05/22 03:55:28;;;;;;;5.75;2.15;;;;;;;16.69;24.16;98629.41;5053612;28;20033;-57
2022/05/22 03:57:54;;;;;;;3.50;1.80;;;;;;;16.86;24.09;98638.09;5051562;28;20025;-58
2022/05/22 04:00:21;;;;;;;4.53;2.05;;;;;;;17.31;23.22;98639.72;5051907;28;20536;-59
2022/05/22 04:02:47;;;;;;;2.58;1.80;;;;;;;17.19;23.39;98636.72;5053741;28;20029;-55
2022/05/22 04:05:13;;;;;;;4.43;2.13;;;;;;;17.82;22.67;98641.28;5053652;28;20166;-56
2022/05/22 04:07:40;;;;;;;5.90;2.10;;;;;;;17.82;22.38;98625.03;5053404;28;20060;-59
2022/05/22 04:10:07;;;;;;;4.35;2.33;;;;;;;18.14;22.28;98632.69;5053431;28;20087;-56
2022/05/22 04:12:33;;;;;;;4.45;1.92;;;;;;;18.69;21.56;98619.09;5054063;28;20104;-56
2022/05/22 04:14:59;;;;;;;5.22;1.85;;;;;;;18.74;21.20;98621.19;5053748;28;20031;-59
2022/05/22 04:17:24;;;;;;;2.92;2.00;;;;;;;19.31;20.80;98624.34;5050210;28;20037;-52
2022/05/22 04:19:50;;;;;;;4.65;2.10;;;;;;;20.35;19.54;98622.78;5033444;28;20034;-55
2022/05/22 04:22:16;;;;;;;3.28;2.13;;;;;;;20.91;18.43;98595.88;5052075;28;20090;-54
2022/05/22 04:27:27;;;;;;;3.83;2.00;;;;;;;21.87;17.50;98611.91;5032820;28;20073;-54
2022/05/22 04:29:52;;;;;;;2.65;1.90;;;;;;;22.50;16.83;98615.34;5032756;28;20140;-57
2022/05/22 04:32:18;;;;;;;2.78;1.75;;;;;;;23.35;16.25;98615.25;5033152;28;20105;-58
2022/05/22 04:34:43;;;;;;;2.95;1.83;;;;;;;24.39;16.09;98617.44;5032997;28;20022;-53
2022/05/22 04:37:09;;;;;;;4.80;1.80;;;;;;;23.67;15.22;98615.97;5033195;28;20025;-58
2022/05/22 04:39:34;;;;;;;5.97;2.03;;;;;;;23.14;15.69;98610.34;5051425;28;20032;-56
2022/05/22 04:42:00;;;;;;;2.08;1.80;;;;;;;22.78;16.05;98611.13;5034118;28;20116;-55
2022/05/22 04:44:25;;;;;;;2.08;1.60;;;;;;;23.19;15.59;98615.94;5032453;28;20469;-56
2022/05/22 04:46:51;;;;;;;4.53;1.70;;;;;;;24.23;15.19;98606.22;5033007;28;20053;-56
2022/05/22 04:49:16;;;;;;;2.83;1.90;;;;;;;25.53;13.92;98613.06;5032834;28;20458;-58
2022/05/22 04:51:42;;;;;;;4.45;1.65;;;;;;;25.13;14.04;98613.00;5033244;28;20076;-58
2022/05/22 04:54:10;;;;;;;3.90;1.67;;;;;;;25.54;14.07;98609.25;5032183;28;20033;-58
2022/05/22 04:56:36;;;;;;;2.75;1.92;;;;;;;25.94;13.45;98606.22;5032784;28;20581;-58
2022/05/22 04:59:01;;;;;;;6.15;1.90;;;;;;;26.35;12.63;98616.03;5049332;28;20161;-56
2022/05/22 05:01:28;;;;;;;3.53;1.77;;;;;;;26.45;12.59;98607.09;5037824;28;20114;-59
2022/05/22 05:03:53;;;;;;;3.00;1.60;;;;;;;27.10;12.45;98606.31;5033011;28;20052;-56
2022/05/22 05:06:19;;;;;;;2.60;1.60;;;;;;;27.75;11.48;98609.78;5032272;28;20478;-56
2022/05/22 05:08:45;;;;;;;2.80;1.40;;;;;;;28.90;10.84;98613.72;5032319;28;20041;-57
2022/05/22 05:11:11;;;;;;;2.20;1.60;;;;;;;29.75;10.39;98601.22;5032385;28;20544;-56
2022/05/22 05:13:38;;;;;;;1.75;1.42;;;;;;;30.14;10.01;98607.16;5032134;28;20037;-55
2022/05/22 05:16:12;;;;;;;3.90;1.63;;;;;;;30.79;10.69;98607.06;5044459;28;20021;-55
2022/05/22 05:18:41;;;;;;;2.35;1.50;;;;;;;30.32;9.88;98598.25;5051923;28;20113;-58
2022/05/22 05:21:09;;;;;;;2.50;1.42;;;;;;;31.11;9.46;98613.16;5039843;28;20033;-51
2022/05/22 05:23:36;;;;;;;2.90;1.73;;;;;;;29.20;10.33;98603.81;5031818;28;20064;-59
2022/05/22 05:26:02;;;;;;;1.73;1.63;;;;;;;29.51;9.95;98606.53;5031477;28;20049;-56
2022/05/22 05:28:28;;;;;;;3.88;1.35;;;;;;;29.84;9.85;98611.69;5031834;28;20132;-57
2022/05/22 05:30:53;;;;;;;4.28;1.55;;;;;;;29.48;9.55;98598.81;5032338;28;20124;-55
2022/05/22 05:33:19;;;;;;;2.10;1.50;;;;;;;29.57;9.65;98601.84;5031565;28;20113;-57
2022/05/22 05:35:45;;;;;;;2.75;1.77;;;;;;;30.19;9.61;98605.22;5042186;28;20118;-55
2022/05/22 05:38:11;;;;;;;4.75;1.73;;;;;;;31.42;8.56;98576.13;5051721;28;20455;-55
2022/05/22 05:40:37;;;;;;;4.10;1.20;;;;;;;32.63;8.34;98602.84;5036923;28;20125;-59
2022/05/22 05:43:03;;;;;;;2.85;1.50;;;;;;;29.49;9.28;98600.47;5031364;28;20076;-60
2022/05/22 05:45:29;;;;;;;2.63;1.52;;;;;;;29.60;9.75;98596.56;5031552;28;20057;-59
2022/05/22 05:47:57;;;;;;;1.58;1.45;;;;;;;30.29;9.01;98592.44;5031536;28;20053;-52
2022/05/22 05:50:26;;;;;;;3.80;1.40;;;;;;;30.24;9.38;98596.06;5043498;28;20037;-52
2022/05/22 05:52:57;;;;;;;3.50;1.48;;;;;;;31.80;8.88;98595.63;5051332;28;20381;-52
2022/05/22 05:55:24;;;;;;;4.25;1.50;;;;;;;32.98;8.10;98597.88;5042122;28;20029;-53
2022/05/22 05:57:50;;;;;;;4.78;1.75;;;;;;;32.42;7.72;98605.09;5031332;28;20501;-54
2022/05/22 06:00:19;;;;;;;2.88;1.35;;;;;;;32.76;7.94;98602.06;5031544;28;20071;-59
2022/05/22 06:02:44;;;;;;;2.38;1.10;;;;;;;33.30;7.23;98585.13;5031156;28;20021;-53
2022/05/22 06:05:11;;;;;;;3.17;1.33;;;;;;;33.34;7.26;98602.78;5042046;28;20099;-55
2022/05/22 06:07:37;;;;;;;2.90;1.35;;;;;;;33.61;7.13;98600.38;5051242;28;20465;-58
2022/05/22 06:10:05;;;;;;;2.42;1.20;;;;;;;33.64;7.12;98608.06;5051168;28;20511;-61
2022/05/22 06:12:30;;;;;;;2.38;1.30;;;;;;;33.45;7.05;98597.06;5051052;28;20029;-56
2022/05/22 06:14:55;;;;;;;1.55;1.20;;;;;;;34.29;6.79;98591.50;5045239;28;20029;-55
2022/05/22 06:17:33;;;;;;;2.42;1.40;;;;;;;35.88;6.48;98596.16;5042627;28;20037;-59
2022/05/22 06:19:59;;;;;;;5.47;1.70;;;;;;;35.77;6.07;98598.41;5041001;28;20029;-58
2022/05/22 06:22:27;;;;;;;1.60;1.38;;;;;;;35.82;5.68;98589.91;5050913;28;20036;-59
2022/05/22 06:24:53;;;;;;;2.75;1.75;;;;;;;34.49;5.84;98615.25;5049080;28;20040;-62
2022/05/22 06:27:19;;;;;;;3.95;1.33;;;;;;;34.11;6.15;98608.00;5050350;28;20045;-65
2022/05/22 06:29:46;;;;;;;1.50;1.23;;;;;;;34.42;6.09;98585.06;5037418;28;20045;-61
2022/05/22 06:32:13;;;;;;;2.53;1.40;;;;;;;34.54;5.90;98603.19;5046373;28;20041;-61
2022/05/22 06:34:41;;;;;;;2.92;1.20;;;;;;;34.87;6.27;98603.78;5045670;28;20057;-62
2022/05/22 06:37:10;;;;;;;2.88;1.17;;;;;;;36.62;5.34;98604.81;5030414;28;20030;-60
2022/05/22 06:39:52;;;;;;;1.88;1.15;;;;;;;37.87;4.75;98593.03;5030165;28;20112;-59
2022/05/22 06:42:34;;;;;;;1.40;1.30;;;;;;;39.52;4.54;98593.16;5030655;28;20104;-61
2022/05/22 06:45:06;;;;;;;2.13;1.42;;;;;;;39.35;3.99;98594.97;5030713;28;20057;-62
2022/05/22 06:47:32;;;;;;;2.15;1.48;;;;;;;39.35;3.52;98594.97;5030503;28;20146;-62
2022/05/22 06:49:58;;;;;;;4.93;1.60;;;;;;;38.10;4.35;98599.16;5038983;28;20362;-55
2022/05/22 06:52:25;;;;;;;3.33;1.40;;;;;;;38.23;3.81;98593.66;5049976;28;20024;-59
2022/05/22 06:54:51;;;;;;;4.03;1.70;;;;;;;38.51;3.53;98593.97;5043778;28;20026;-60
2022/05/22 06:57:19;;;;;;;2.38;1.30;;;;;;;38.90;3.77;98593.78;5030246;28;20029;-59
2022/05/22 06:59:45;;;;;;;1.92;1.40;;;;;;;38.80;3.59;98595.03;5030706;28;20025;-65
2022/05/22 07:02:12;;;;;;;3.95;1.60;;;;;;;38.91;3.52;98585.06;5029750;28;20104;-58
2022/05/22 07:04:38;;;;;;;4.93;1.50;;;;;;;39.48;3.47;98584.63;5030286;28;20029;-60
2022/05/22 07:07:04;;;;;;;2.45;1.52;;;;;;;39.75;2.98;98579.50;5043296;28;20091;-60
2022/05/22 07:09:29;;;;;;;1.80;1.52;;;;;;;40.45;2.77;98583.31;5050536;28;20509;-60
2022/05/22 07:11:55;;;;;;;2.80;1.60;;;;;;;40.67;3.03;98573.50;5049860;28;20104;-61
2022/05/22 07:14:22;;;;;;;3.72;1.70;;;;;;;41.17;2.99;98578.91;5047830;28;20763;-61
2022/05/22 07:16:48;;;;;;;3.00;1.85;;;;;;;40.87;2.79;98571.69;5049254;28;20099;-59
2022/05/22 07:19:15;;;;;;;3.53;1.80;;;;;;;40.72;2.91;98580.91;5043456;28;20025;-62
2022/05/22 07:21:40;;;;;;;2.80;1.73;;;;;;;40.88;2.57;98578.97;5029971;28;20037;-61
2022/05/22 07:24:06;;;;;;;5.78;1.80;;;;;;;40.56;2.52;98578.00;5029813;28;20041;-61
2022/05/22 07:26:32;;;;;;;2.20;1.50;;;;;;;40.25;2.99;98582.25;5038456;28;20110;-62
2022/05/22 07:28:58;;;;;;;2.85;1.83;;;;;;;40.32;2.76;98579.72;5040905;28;20040;-60
2022/05/22 07:31:26;;;;;;;4.25;1.90;;;;;;;40.40;2.94;98577.97;5050034;28;20477;-60
2022/05/22 07:33:52;;;;;;;3.00;1.88;;;;;;;40.01;2.82;98576.38;5049276;28;20461;-62
2022/05/22 07:36:19;;;;;;;2.10;1.70;;;;;;;39.75;2.73;98585.94;5050408;28;20032;-61
2022/05/22 07:38:44;;;;;;;1.95;1.75;;;;;;;39.03;2.72;98584.28;5049648;28;20041;-61
2022/05/22 07:41:11;;;;;;;5.55;1.73;;;;;;;38.14;3.75;98576.97;5049737;28;20406;-63
2022/05/22 07:43:38;;;;;;;5.57;1.90;;;;;;;38.46;3.49;98578.22;5050328;28;20373;-65
2022/05/22 07:46:03;;;;;;;2.78;2.03;;;;;;;39.55;3.18;98554.09;5043121;28;21189;-62
2022/05/22 07:48:29;;;;;;;2.10;1.80;;;;;;;40.07;2.64;98574.16;5047163;28;20047;-63
2022/05/22 07:50:57;;;;;;;3.70;1.73;;;;;;;40.07;2.82;98565.75;5042482;28;20029;-62
2022/05/22 07:53:23;;;;;;;2.10;1.80;;;;;;;39.65;3.29;98565.97;5037280;28;20032;-63
2022/05/22 07:55:49;;;;;;;2.95;1.50;;;;;;;39.43;3.21;98579.28;5038895;28;20033;-62
2022/05/22 07:58:14;;;;;;;1.98;1.80;;;;;;;38.88;3.42;98570.94;5037130;28;20071;-62
2022/05/22 08:00:40;;;;;;;2.50;1.80;;;;;;;38.62;3.43;98570.03;5035108;28;20029;-61
2022/05/22 08:03:11;;;;;;;2.78;1.80;;;;;;;38.25;3.66;98578.22;5036645;28;20029;-69
2022/05/22 08:05:37;;;;;;;2.42;1.85;;;;;;;37.40;3.70;98565.97;5034282;28;20064;-66
2022/05/22 08:08:02;;;;;;;3.47;1.90;;;;;;;36.85;3.95;98562.81;5017224;28;20064;-62
2022/05/22 08:10:28;;;;;;;2.88;1.80;;;;;;;36.37;4.35;98551.50;5035750;28;20049;-62
2022/05/22 08:12:54;;;;;;;3.42;1.90;;;;;;;35.54;4.62;98537.25;5033439;28;20030;-62
2022/05/22 08:15:23;;;;;;;3.00;1.83;;;;;;;34.41;5.03;98571.53;5037851;28;20475;-63
2022/05/22 08:17:48;;;;;;;4.95;2.10;;;;;;;29.64;7.36;98561.81;5041147;28;20037;-62
2022/05/22 08:20:18;;;;;;;4.60;1.98;;;;;;;25.79;10.15;98552.03;5038864;28;20485;-62
2022/05/22 08:22:45;;;;;;;4.05;2.00;;;;;;;23.34;11.79;98539.03;5040582;28;20042;-65
2022/05/22 08:25:13;;;;;;;4.65;2.05;;;;;;;21.76;12.62;98569.09;5041483;28;20098;-58
2022/05/22 08:27:39;;;;;;;3.47;2.05;;;;;;;20.12;13.89;98536.34;5040804;28;20121;-64
2022/05/22 08:55:23;;;;;;;;;;;;;;;14.97;19.11;98532.41;5065659;28;20406;-57
2022/05/22 09:00:43;;;;;;;12.38;2.80;;;;;;;14.80;19.88;98541.66;5065724;28;20219;-57
2022/05/22 09:03:18;;;;;;;5.53;1.92;;;;;;;14.81;19.70;98535.25;5063098;28;20541;-57
2022/05/22 09:05:49;;;;;;;3.03;1.90;;;;;;;14.89;19.81;98538.72;5062910;28;20029;-54
2022/05/22 09:08:20;;;;;;;6.07;2.05;;;;;;;14.85;19.66;98536.56;5064928;28;20029;-62
2022/05/22 09:10:54;;;;;;;6.30;2.30;;;;;;;14.89;19.40;98532.47;5064853;28;20037;-60
2022/05/22 09:13:28;;;;;;;7.78;2.25;;;;;;;15.01;19.24;98532.88;5065958;28;20144;-49
2022/05/22 09:16:14;;;;;;;7.47;2.25;;;;;;;15.29;18.37;98532.22;5064312;28;20033;-52
2022/05/22 09:18:57;;;;;;;5.93;2.13;;;;;;;15.39;17.89;98534.63;5065622;28;20041;-58
2022/05/22 09:21:36;;;;;;;8.25;2.47;;;;;;;15.38;17.55;98532.97;5065343;28;20408;-64
2022/05/22 09:24:12;;;;;;;4.05;1.98;;;;;;;15.05;17.67;98515.28;5063195;28;20127;-60
2022/05/22 09:26:56;;;;;;;7.03;2.67;;;;;;;14.97;17.92;98537.81;5062474;28;20032;-57
2022/05/22 09:29:37;;;;;;;4.55;2.10;;;;;;;14.92;18.32;98540.19;5064830;28;20032;-58
2022/05/22 09:32:30;;;;;;;5.57;2.10;;;;;;;14.94;17.80;98535.44;5064878;28;20480;-54
2022/05/22 09:35:07;;;;;;;6.03;1.75;;;;;;;15.08;16.98;98536.50;5063416;28;20444;-64
2022/05/22 09:37:55;;;;;;;3.42;2.50;;;;;;;14.73;17.14;98523.56;5063683;28;20040;-59
2022/05/22 09:40:48;;;;;;;6.47;2.30;;;;;;;14.67;17.02;98540.38;5064630;28;20797;-60
2022/05/22 09:43:32;;;;;;;4.97;2.00;;;;;;;14.67;17.18;98540.38;5064067;28;20140;-60
2022/05/22 09:46:31;;;;;;;2.53;1.90;;;;;;;14.21;18.09;98525.94;5046132;28;20052;-58
2022/05/22 09:49:24;;;;;;;4.15;2.05;;;;;;;14.30;18.68;98523.22;5044224;28;20129;-55
2022/05/22 09:52:01;;;;;;;5.20;2.03;;;;;;;14.49;19.24;98532.66;5044723;28;20238;-56
2022/05/22 09:54:45;;;;;;;4.82;1.92;;;;;;;14.60;17.93;98529.53;5044333;28;20049;-55
2022/05/22 09:57:34;;;;;;;5.28;2.20;;;;;;;14.69;18.45;98526.75;5042561;28;20072;-54
2022/05/22 10:00:11;;;;;;;4.03;1.90;;;;;;;14.69;18.30;98510.59;5044104;28;20119;-53
2022/05/22 10:02:53;;;;;;;3.67;1.98;;;;;;;14.72;17.74;98521.03;5044705;28;20108;-54
2022/05/22 10:05:42;;;;;;;3.83;2.00;;;;;;;14.76;18.35;98525.88;5034728;28;20029;-56
2022/05/22 10:08:27;;;;;;;5.55;2.10;;;;;;;14.81;18.22;98519.09;5030076;28;20122;-56
2022/05/22 10:11:01;;;;;;;5.20;2.05;;;;;;;14.71;18.29;98512.13;5031009;28;20533;-54
2022/05/22 10:13:45;;;;;;;3.28;2.15;;;;;;;14.75;18.04;98509.88;5032646;28;20030;-53
2022/05/22 10:16:42;;;;;;;7.03;1.92;;;;;;;15.01;17.78;98528.31;5032723;28;20033;-58
2022/05/22 10:19:40;;;;;;;2.58;2.20;;;;;;;15.00;17.88;98517.72;5000213;28;20052;-55
2022/05/22 10:22:21;;;;;;;2.92;2.05;;;;;;;14.96;17.49;98519.97;5020617;28;20055;-55
2022/05/22 10:24:49;;;;;;;2.60;2.20;;;;;;;14.88;18.63;98510.09;5028535;28;20041;-55
2022/05/22 10:27:51;;;;;;;4.28;1.95;;;;;;;14.96;17.95;98503.78;5031842;28;20111;-56
2022/05/22 10:30:21;;;;;;;4.93;2.20;;;;;;;14.97;18.76;98518.94;5031191;28;20029;-56
2022/05/22 10:33:09;;;;;;;5.25;2.45;;;;;;;15.16;18.80;98514.00;5031643;28;20029;-54
2022/05/22 10:35:57;;;;;;;5.15;2.28;;;;;;;15.29;17.64;98505.25;5031585;28;20044;-53
2022/05/22 10:38:28;;;;;;;5.68;2.05;;;;;;;15.03;18.54;98502.03;5031535;28;20025;-56
2022/05/22 10:43:42;;;;;;;6.20;2.03;;;;;;;15.11;17.97;98522.66;5032182;28;20128;-55
2022/05/22 10:46:08;;;;;;;4.22;2.28;;;;;;;14.89;18.67;98509.06;5032025;28;20021;-57
2022/05/22 10:48:35;;;;;;;5.07;2.20;;;;;;;14.85;18.54;98523.09;5031735;28;20034;-56
2022/05/22 10:51:12;;;;;;;4.35;2.30;;;;;;;15.03;18.42;98518.19;5032604;28;20045;-54
2022/05/22 10:53:48;;;;;;;4.15;2.33;;;;;;;15.05;18.42;98521.53;5025347;28;20452;-58
2022/05/22 10:56:14;;;;;;;3.90;2.28;;;;;;;15.04;18.67;98517.16;5029061;28;20049;-55
2022/05/22 10:58:51;;;;;;;4.40;2.03;;;;;;;15.01;18.13;98514.84;5028044;28;20447;-58
2022/05/22 11:01:20;;;;;;;6.05;2.20;;;;;;;14.94;18.20;98508.50;5029404;28;20452;-57
2022/05/22 11:03:45;;;;;;;5.05;2.20;;;;;;;14.84;19.05;98507.94;5030472;28;20089;-59
2022/05/22 11:06:20;;;;;;;5.03;2.08;;;;;;;14.89;18.71;98510.91;5031833;28;20424;-54
2022/05/22 11:08:54;;;;;;;3.30;2.15;;;;;;;14.91;19.25;98527.75;5030080;28;20525;-59
2022/05/22 11:11:30;;;;;;;3.80;1.95;;;;;;;14.91;19.04;98514.25;5030391;28;20506;-56
2022/05/22 11:14:09;;;;;;;2.38;1.98;;;;;;;14.83;19.01;98522.44;5029169;28;20049;-56
2022/05/22 11:16:36;;;;;;;2.70;2.03;;;;;;;14.29;18.93;98467.69;5028364;28;20480;-55
2022/05/22 11:19:11;;;;;;;2.67;2.03;;;;;;;14.71;19.21;98513.97;5030577;28;20115;-57
2022/05/22 11:22:01;;;;;;;8.93;2.20;;;;;;;14.59;19.20;98517.09;5025627;28;20029;-56
2022/05/22 11:24:43;;;;;;;9.73;2.20;;;;;;;14.50;19.76;98521.69;5030354;28;20129;-56
2022/05/22 11:27:25;;;;;;;7.25;2.33;;;;;;;14.61;18.98;98523.13;5032171;28;20033;-56
2022/05/22 11:30:06;;;;;;;3.85;1.83;;;;;;;14.29;19.59;98510.78;5031204;28;20033;-54
2022/05/22 11:32:53;;;;;;;4.65;2.58;;;;;;;14.40;19.37;98517.59;5031691;28;20029;-58
2022/05/22 11:35:31;;;;;;;4.07;2.30;;;;;;;14.20;20.04;98523.44;5031976;28;20495;-55
2022/05/22 11:38:12;;;;;;;6.50;2.45;;;;;;;14.21;19.68;98525.13;5031914;28;20083;-56
2022/05/22 11:40:43;;;;;;;3.60;2.88;;;;;;;14.17;19.76;98526.50;5031138;28;20029;-53
2022/05/22 11:43:38;;;;;;;9.90;2.50;;;;;;;14.07;19.96;98545.56;5031420;28;20033;-54
2022/05/22 11:46:33;;;;;;;5.22;2.20;;;;;;;14.05;19.99;98536.84;5031915;28;20099;-55
2022/05/22 11:49:22;;;;;;;4.35;2.53;;;;;;;13.91;20.01;98523.13;5012220;28;20128;-53
2022/05/22 11:52:53;;;;;;;3.60;2.30;;;;;;;13.74;20.74;98535.84;5031053;28;20029;-54
2022/05/22 11:55:12;;;;;;;3.35;2.35;;;;;;;13.78;21.18;98520.19;5031372;28;20041;-57
2022/05/22 11:57:56;;;;;;;5.85;2.00;;;;;;;13.91;20.79;98525.00;5011697;28;20047;-53
2022/05/22 12:00:32;;;;;;;5.90;1.90;;;;;;;14.05;20.58;98531.47;5057187;28;20084;-55
2022/05/22 12:03:07;;;;;;;5.13;2.20;;;;;;;14.12;20.13;98529.72;5029538;28;20141;-55
2022/05/22 12:05:51;;;;;;;3.47;2.00;;;;;;;14.24;20.25;98534.72;5031864;28;20037;-52
2022/05/22 12:08:56;;;;;;;3.35;1.85;;;;;;;14.25;20.04;98490.63;5030955;28;20033;-56
2022/05/22 12:11:38;;;;;;;3.30;2.00;;;;;;;14.62;19.71;98515.88;5019872;28;20107;-55
2022/05/22 12:14:19;;;;;;;4.28;2.10;;;;;;;14.39;19.77;98527.50;5011652;28;20140;-54
2022/05/22 12:17:17;;;;;;;5.30;2.10;;;;;;;14.32;19.95;98531.94;5016040;28;20036;-54
2022/05/22 12:19:59;;;;;;;6.00;2.17;;;;;;;13.92;20.30;98516.72;5021815;28;20480;-57
2022/05/22 12:25:19;;;;;;;4.32;2.00;;;;;;;13.87;20.27;98518.31;5030413;28;20037;-55
2022/05/22 12:27:45;;;;;;;3.33;2.10;;;;;;;13.60;21.20;98507.84;5029945;28;20495;-55
2022/05/22 12:30:16;;;;;;;3.90;2.00;;;;;;;13.78;21.10;98518.31;5030716;28;20112;-53
2022/05/22 12:32:57;;;;;;;4.60;1.77;;;;;;;13.75;21.82;98520.56;5030026;28;20060;-51
2022/05/22 12:35:25;;;;;;;4.07;2.20;;;;;;;13.82;21.78;98521.50;5030434;28;20037;-54
2022/05/22 12:38:15;;;;;;;6.28;2.17;;;;;;;13.91;21.30;98520.44;5031042;28;20040;-56